Time;durP1;ratioP1;P1;durP2;ratioP2;P2;SDS_P1;SDS_P2;PMS_P1;PMS_P2;Temp;Humidity;BMP_temperature;BMP_pressure;BME280_temperature;BME280_humidity;BME280_pressure;Samples;Min_cycle;Max_cycle;Signal;HPM_P1;HPM_P2
2023/05/18 00:01:14;;;;;;;4.87;3.10;;;;;;;13.38;67.09;99846.31;7685490;32;39460;-85
2023/05/18 00:05:32;;;;;;;5.53;3.53;;;;;;;13.39;67.10;99853.44;7685368;32;40789;-84
2023/05/18 00:09:49;;;;;;;5.60;3.03;;;;;;;13.64;66.36;99854.28;7685353;32;36891;-83
2023/05/18 00:14:07;;;;;;;7.82;3.20;;;;;;;13.56;66.58;99854.94;7683977;32;37070;-84
2023/05/18 00:18:23;;;;;;;4.40;2.97;;;;;;;13.49;67.19;99856.09;7685175;32;40129;-84
2023/05/18 00:22:41;;;;;;;7.93;3.60;;;;;;;13.50;67.09;99854.16;7685176;32;39880;-84
2023/05/18 00:26:57;;;;;;;6.28;3.37;;;;;;;13.60;66.73;99862.25;7684871;32;38455;-84
2023/05/18 00:31:14;;;;;;;5.87;2.78;;;;;;;13.56;66.85;99857.69;7684899;32;37337;-85
2023/05/18 00:35:30;;;;;;;6.32;2.95;;;;;;;13.63;66.74;99864.44;7684823;32;40261;-85
2023/05/18 00:39:47;;;;;;;9.95;3.00;;;;;;;13.69;66.65;99867.91;7684887;32;39910;-85
2023/05/18 00:44:03;;;;;;;5.62;3.03;;;;;;;13.76;66.36;99873.06;7660578;32;37903;-84
2023/05/18 00:48:20;;;;;;;9.60;3.50;;;;;;;13.84;66.15;99865.00;7658517;32;37807;-85
2023/05/18 00:52:37;;;;;;;5.55;3.03;;;;;;;13.60;67.00;99862.25;7644889;32;40172;-85
2023/05/18 00:56:53;;;;;;;4.68;3.00;;;;;;;13.57;67.56;99868.31;7658371;32;39982;-85
2023/05/18 01:01:09;;;;;;;7.47;3.30;;;;;;;13.56;67.59;99874.91;7658271;32;38570;-84
2023/05/18 01:05:26;;;;;;;10.18;3.00;;;;;;;13.71;67.02;99872.03;7645566;32;37464;-84
2023/05/18 01:09:42;;;;;;;5.43;3.30;;;;;;;13.71;66.78;99872.03;7684621;32;40119;-84
2023/05/18 01:14:16;;;;;;;4.20;2.90;;;;;;;13.70;66.82;99878.59;7684563;32;40904;-85
2023/05/18 01:19:00;;;;;;;5.70;3.10;;;;;;;13.95;65.98;99875.84;7684443;32;37910;-85
2023/05/18 01:23:28;;;;;;;;;;;;;;;13.80;66.24;99872.19;7672146;32;37076;-85
2023/05/18 01:27:46;;;;;;;5.85;2.90;;;;;;;13.90;65.91;99880.31;7684663;32;40435;-85
2023/05/18 01:32:05;;;;;;;4.35;3.00;;;;;;;13.40;67.90;99887.13;7684150;32;40923;-84
2023/05/18 01:36:21;;;;;;;5.47;2.83;;;;;;;13.50;67.66;99887.84;7665690;32;37579;-84
2023/05/18 01:41:10;;;;;;;4.37;2.83;;;;;;;13.66;67.16;99887.66;7657199;32;37074;-84
2023/05/18 01:45:28;;;;;;;6.53;3.10;;;;;;;13.66;67.16;99887.66;7646865;32;39375;-84
2023/05/18 01:50:01;;;;;;;5.15;3.05;;;;;;;13.78;66.44;99892.75;7657846;32;39828;-84
2023/05/18 01:54:18;;;;;;;7.03;3.72;;;;;;;13.72;66.49;99897.47;7657381;32;38670;-84
2023/05/18 01:58:36;;;;;;;8.43;3.20;;;;;;;13.78;66.32;99890.03;7644055;32;37347;-85
2023/05/18 02:02:52;;;;;;;7.82;3.67;;;;;;;13.70;66.62;99902.44;7657143;32;40190;-85
2023/05/18 02:07:09;;;;;;;10.15;3.47;;;;;;;13.73;66.51;99899.12;7683661;32;39934;-84
2023/05/18 02:11:25;;;;;;;4.65;3.17;;;;;;;13.61;66.98;99909.66;7683548;32;37868;-84
2023/05/18 02:15:43;;;;;;;5.75;3.22;;;;;;;13.66;67.15;99913.16;7683440;32;36902;-84
2023/05/18 02:19:59;;;;;;;11.57;3.28;;;;;;;13.76;67.07;99906.75;7683329;32;39385;-84
2023/05/18 02:24:17;;;;;;;16.85;3.80;;;;;;;13.72;67.10;99908.44;7683357;32;39719;-84
2023/05/18 02:28:33;;;;;;;7.10;2.97;;;;;;;13.67;67.16;99919.44;7682878;32;37846;-84
2023/05/18 02:32:49;;;;;;;7.78;3.22;;;;;;;13.52;67.55;99921.25;7669461;32;36824;-84
2023/05/18 02:37:06;;;;;;;6.50;3.25;;;;;;;13.61;67.39;99915.16;7656567;32;40092;-83
2023/05/18 02:41:22;;;;;;;4.50;3.10;;;;;;;13.57;67.65;99917.63;7656488;32;39891;-83
2023/05/18 02:45:38;;;;;;;4.72;2.65;;;;;;;13.48;67.94;99922.91;7656350;32;38070;-84
2023/05/18 02:49:55;;;;;;;5.22;3.20;;;;;;;13.73;67.11;99926.53;7656259;32;37913;-85
2023/05/18 02:54:11;;;;;;;4.78;2.90;;;;;;;13.70;67.19;99927.09;7659217;32;39458;-84
2023/05/18 02:58:27;;;;;;;4.28;2.92;;;;;;;13.73;67.18;99922.94;7676629;32;40000;-84
2023/05/18 03:02:47;;;;;;;6.87;2.90;;;;;;;13.63;67.48;99921.16;7686310;32;38630;-84
2023/05/18 03:07:03;;;;;;;7.07;3.03;;;;;;;13.43;68.06;99920.22;7672434;32;36907;-84
2023/05/18 03:11:21;;;;;;;4.80;2.85;;;;;;;13.34;68.34;99924.69;7686106;32;39287;-84
2023/05/18 03:15:38;;;;;;;8.95;2.97;;;;;;;13.49;67.71;99930.03;7685923;32;39693;-84
2023/05/18 03:19:54;;;;;;;5.87;3.47;;;;;;;13.43;68.15;99925.69;7685614;32;38745;-83
2023/05/18 03:24:14;;;;;;;5.40;3.22;;;;;;;13.31;68.32;99927.97;7685853;32;37335;-84
2023/05/18 03:28:31;;;;;;;6.93;3.78;;;;;;;13.44;67.91;99932.00;7655907;32;39289;-84
2023/05/18 03:32:47;;;;;;;7.65;3.30;;;;;;;13.47;67.67;99942.34;7659500;32;40082;-84
2023/05/18 03:37:04;;;;;;;8.23;3.15;;;;;;;13.40;67.73;99939.97;7659328;32;38619;-85
2023/05/18 03:41:20;;;;;;;7.62;3.47;;;;;;;13.30;68.01;99946.31;7659275;32;37897;-84
2023/05/18 03:45:37;;;;;;;7.85;3.67;;;;;;;13.10;68.79;99958.22;7659228;32;40086;-84
2023/05/18 03:49:53;;;;;;;9.70;3.95;;;;;;;13.40;68.05;99958.31;7659200;32;40957;-84
2023/05/18 03:54:09;;;;;;;6.53;3.47;;;;;;;13.38;68.15;99960.53;7659577;32;38505;-84
2023/05/18 03:58:26;;;;;;;6.05;3.60;;;;;;;13.49;67.63;99962.09;7659034;32;37825;-84
2023/05/18 04:02:42;;;;;;;6.15;3.92;;;;;;;13.45;67.69;99966.47;7658702;32;39474;-84
2023/05/18 04:07:01;;;;;;;5.87;3.70;;;;;;;13.31;68.05;99974.50;7658956;32;39973;-85
2023/05/18 04:11:17;;;;;;;8.40;3.72;;;;;;;13.42;67.56;99973.38;7658822;32;36784;-85
2023/05/18 04:15:33;;;;;;;7.47;4.10;;;;;;;13.41;67.42;99971.72;7659024;32;37062;-85
2023/05/18 04:19:50;;;;;;;7.15;3.85;;;;;;;13.40;67.55;99992.00;7658694;32;39328;-85
2023/05/18 04:24:07;;;;;;;6.20;3.85;;;;;;;13.47;67.36;99987.03;7659643;32;40050;-85
2023/05/18 04:28:23;;;;;;;8.23;4.70;;;;;;;13.30;68.13;99987.38;7658814;32;38585;-84
2023/05/18 04:32:41;;;;;;;7.95;4.20;;;;;;;13.30;68.15;99992.84;7632439;32;37763;-84
2023/05/18 04:36:58;;;;;;;6.72;4.20;;;;;;;13.40;67.91;99991.16;7632513;32;38387;-84
2023/05/18 04:41:19;;;;;;;6.70;4.53;;;;;;;13.19;68.57;99995.94;7632592;32;38280;-84
2023/05/18 04:45:36;;;;;;;9.40;4.70;;;;;;;13.36;68.08;100001.88;7632164;32;38071;-84
2023/05/18 04:49:52;;;;;;;8.05;4.93;;;;;;;13.32;68.46;100003.56;7654372;32;38215;-85
2023/05/18 04:54:09;;;;;;;8.55;4.28;;;;;;;13.63;67.55;100000.59;7658472;32;39822;-84
2023/05/18 04:58:26;;;;;;;9.73;4.12;;;;;;;13.41;68.45;100001.03;7658253;32;40755;-85
2023/05/18 05:02:45;;;;;;;7.45;3.90;;;;;;;13.32;68.40;100000.81;7658351;32;38735;-85
2023/05/18 05:07:01;;;;;;;5.53;3.87;;;;;;;13.46;68.32;100001.00;7658324;32;37762;-84
2023/05/18 05:11:18;;;;;;;5.75;3.78;;;;;;;13.52;67.92;100010.78;7658081;32;37792;-84
2023/05/18 05:15:35;;;;;;;6.32;3.62;;;;;;;13.44;68.42;100012.22;7657223;32;40744;-84
2023/05/18 05:19:52;;;;;;;6.50;3.47;;;;;;;13.67;67.57;100010.66;7656365;32;38554;-84
2023/05/18 05:24:08;;;;;;;9.43;3.60;;;;;;;13.53;68.30;100015.19;7658331;32;37023;-85
2023/05/18 05:28:24;;;;;;;6.15;3.90;;;;;;;13.70;68.01;100017.50;7644447;32;39512;-84
2023/05/18 05:32:40;;;;;;;4.97;3.25;;;;;;;13.52;68.52;100014.38;7670585;32;40868;-84
2023/05/18 05:36:57;;;;;;;6.80;3.42;;;;;;;13.56;68.53;100020.09;7684340;32;37875;-84
2023/05/18 05:41:13;;;;;;;4.57;3.05;;;;;;;13.70;68.30;100028.47;7684441;32;35317;-85
2023/05/18 05:45:30;;;;;;;4.50;2.87;;;;;;;13.82;67.99;100023.44;7658642;32;40109;-84
2023/05/18 05:49:46;;;;;;;4.95;3.47;;;;;;;13.85;68.12;100025.59;7657618;32;40035;-85
2023/05/18 05:54:03;;;;;;;6.05;3.30;;;;;;;13.75;68.31;100035.84;7657439;32;37925;-85
2023/05/18 05:58:20;;;;;;;7.72;3.55;;;;;;;13.70;68.39;100042.16;7657587;32;37640;-85
2023/05/18 06:02:37;;;;;;;5.68;3.42;;;;;;;13.77;68.26;100034.44;7657501;32;39884;-84
2023/05/18 06:06:54;;;;;;;4.87;3.30;;;;;;;13.71;68.60;100041.03;7657331;32;39996;-84
2023/05/18 06:11:11;;;;;;;8.00;3.87;;;;;;;13.68;68.41;100047.94;7657079;32;38782;-85
2023/05/18 06:15:27;;;;;;;6.20;4.00;;;;;;;13.81;68.02;100046.44;7680741;32;37229;-85
2023/05/18 06:19:43;;;;;;;6.60;3.83;;;;;;;13.63;68.92;100047.16;7683353;32;39984;-84
2023/05/18 06:24:00;;;;;;;6.53;3.92;;;;;;;13.88;68.23;100046.12;7683213;32;40741;-84
2023/05/18 06:28:17;;;;;;;5.93;3.72;;;;;;;13.79;68.30;100053.31;7685831;32;37783;-85
2023/05/18 06:32:33;;;;;;;5.60;3.67;;;;;;;13.81;68.43;100057.41;7686320;32;37272;-85
2023/05/18 06:36:49;;;;;;;6.10;3.47;;;;;;;13.75;68.16;100063.22;7685083;32;39278;-85
2023/05/18 06:41:06;;;;;;;5.57;3.50;;;;;;;13.55;68.83;100070.47;7665453;32;40148;-85
2023/05/18 06:45:22;;;;;;;6.37;3.80;;;;;;;13.57;69.46;100072.94;7686623;32;37979;-79
2023/05/18 06:49:38;;;;;;;5.90;3.90;;;;;;;13.60;70.25;100080.59;7686499;32;37956;-84
2023/05/18 06:53:55;;;;;;;5.45;3.33;;;;;;;13.60;70.42;100069.62;7662268;32;39378;-86
2023/05/18 06:58:11;;;;;;;4.70;3.08;;;;;;;13.71;69.36;100082.97;7660432;32;40845;-85
2023/05/18 07:02:28;;;;;;;5.05;3.50;;;;;;;13.97;68.95;100076.47;7659788;32;37969;-85
2023/05/18 07:06:47;;;;;;;8.82;3.87;;;;;;;13.71;69.32;100090.34;7660982;32;37112;-85
2023/05/18 07:11:04;;;;;;;9.82;3.50;;;;;;;13.61;70.00;100088.53;7660065;32;38978;-85
2023/05/18 07:15:20;;;;;;;5.78;3.47;;;;;;;13.71;69.84;100096.69;7662742;32;40012;-86
2023/05/18 07:19:36;;;;;;;5.62;3.25;;;;;;;13.64;70.10;100100.81;7665645;32;37988;-85
2023/05/18 07:23:53;;;;;;;5.10;3.00;;;;;;;13.95;69.59;100092.38;7674720;32;36985;-85
2023/05/18 07:28:09;;;;;;;4.80;3.40;;;;;;;14.02;69.44;100101.09;7678589;32;39716;-85
2023/05/18 07:32:25;;;;;;;5.78;3.53;;;;;;;13.19;71.22;100098.03;7678323;32;40593;-85
2023/05/18 07:36:42;;;;;;;6.62;3.45;;;;;;;13.85;69.37;100102.31;7669238;32;37925;-84
2023/05/18 07:40:58;;;;;;;5.50;3.58;;;;;;;13.84;69.54;100108.91;7679337;32;37975;-84
2023/05/18 07:45:15;;;;;;;5.03;3.40;;;;;;;13.83;69.54;100115.50;7685486;32;40082;-85
2023/05/18 07:49:31;;;;;;;4.28;2.87;;;;;;;13.96;69.31;100121.44;7685749;32;39753;-86
2023/05/18 07:53:47;;;;;;;4.55;2.85;;;;;;;13.32;70.44;100121.31;7654317;32;37645;-84
2023/05/18 07:58:04;;;;;;;6.65;3.20;;;;;;;13.56;70.70;100120.62;7686314;32;37039;-86
2023/05/18 08:02:20;;;;;;;6.00;3.40;;;;;;;13.60;71.12;100122.50;7675901;32;39627;-85
2023/05/18 08:06:37;;;;;;;5.28;3.10;;;;;;;13.06;72.51;100121.38;7683901;32;40799;-85
2023/05/18 08:10:53;;;;;;;4.85;3.47;;;;;;;13.15;72.57;100132.56;7671167;32;37880;-86
2023/05/18 08:15:10;;;;;;;4.95;3.37;;;;;;;13.77;70.62;100127.59;7665525;32;38415;-86
2023/05/18 08:19:27;;;;;;;4.60;3.28;;;;;;;13.78;71.35;100123.75;7665066;32;39539;-86
2023/05/18 08:23:43;;;;;;;6.82;3.33;;;;;;;14.06;70.43;100126.84;7662646;32;40878;-85
2023/05/18 08:27:59;;;;;;;3.25;2.62;;;;;;;14.38;70.33;100130.94;7667882;32;37691;-85
2023/05/18 08:32:17;;;;;;;6.22;2.80;;;;;;;14.63;69.43;100125.22;7673971;32;37081;-85
2023/05/18 08:36:35;;;;;;;6.53;3.33;;;;;;;14.52;68.92;100125.56;7672254;32;39151;-86
2023/05/18 08:41:16;;;;;;;2.75;1.92;;;;;;;14.89;68.34;100138.66;7681394;32;40895;-89
2023/05/18 08:46:03;;;;;;;3.67;2.25;;;;;;;15.01;66.77;100127.28;7666460;32;37745;-86
2023/05/18 08:50:21;;;;;;;1.98;1.83;;;;;;;15.20;66.03;100132.81;7670723;32;36979;-85
2023/05/18 08:54:40;;;;;;;1.98;1.50;;;;;;;15.13;66.00;100133.16;7658612;32;40592;-86
2023/05/18 08:58:58;;;;;;;2.80;1.70;;;;;;;15.30;67.26;100124.44;7660609;32;40930;-85
2023/05/18 09:03:15;;;;;;;2.17;1.90;;;;;;;15.58;66.06;100119.91;7684722;32;38685;-84
2023/05/18 09:07:32;;;;;;;2.85;1.92;;;;;;;15.91;64.71;100121.94;7683540;32;37253;-81
2023/05/18 09:11:49;;;;;;;2.65;2.37;;;;;;;15.25;64.87;100121.75;7684914;32;39419;-86
2023/05/18 09:16:06;;;;;;;3.37;1.87;;;;;;;15.64;66.04;100120.62;7680246;32;40949;-87
2023/05/18 09:20:25;;;;;;;3.70;1.92;;;;;;;15.65;65.28;100114.03;7650595;32;38195;-81
2023/05/18 09:24:41;;;;;;;3.10;1.80;;;;;;;15.87;65.62;100115.41;7675504;32;36348;-85
2023/05/18 09:28:58;;;;;;;2.33;1.95;;;;;;;16.16;65.29;100109.69;7677199;32;39945;-86
2023/05/18 09:33:20;;;;;;;2.85;1.80;;;;;;;15.83;64.35;100117.09;7663822;32;40121;-87
2023/05/18 09:37:40;;;;;;;3.00;1.60;;;;;;;16.28;64.37;100114.69;7654987;32;37941;-88
2023/05/18 09:41:57;;;;;;;2.15;1.52;;;;;;;15.92;64.99;100120.81;7663229;32;36995;-87
2023/05/18 09:46:13;;;;;;;1.65;1.52;;;;;;;15.62;65.02;100124.81;7668179;32;39171;-87
2023/05/18 09:50:30;;;;;;;4.45;1.67;;;;;;;15.25;64.98;100121.75;7657526;32;39922;-86
2023/05/18 09:55:03;;;;;;;2.28;1.58;;;;;;;15.09;65.67;100126.62;7646789;32;38007;-87
2023/05/18 09:59:19;;;;;;;2.08;1.48;;;;;;;15.86;65.21;100127.50;7657738;32;37110;-87
2023/05/18 10:03:37;;;;;;;5.22;1.50;;;;;;;16.08;63.79;100127.69;7657138;32;39275;-88
2023/05/18 10:07:54;;;;;;;2.42;1.30;;;;;;;15.94;64.42;100132.34;7659435;32;41324;-84
2023/05/18 10:12:12;;;;;;;5.00;1.70;;;;;;;15.91;63.84;100124.69;7670066;32;38148;-85
2023/05/18 10:16:28;;;;;;;14.35;6.15;;;;;;;15.74;65.49;100123.22;7663331;32;38685;-85
2023/05/18 10:20:46;;;;;;;21.20;10.38;;;;;;;15.76;64.81;100129.31;7652645;32;39536;-84
2023/05/18 10:25:09;;;;;;;5.40;2.70;;;;;;;16.12;64.92;100134.22;7652025;32;40012;-83
2023/05/18 10:29:26;;;;;;;2.53;1.60;;;;;;;16.29;64.34;100132.84;7651912;32;39364;-86
2023/05/18 10:33:43;;;;;;;4.62;1.45;;;;;;;16.30;64.15;100129.81;7654168;32;37743;-85
2023/05/18 10:38:00;;;;;;;2.78;1.60;;;;;;;16.44;64.40;100126.28;7663722;32;40013;-84
2023/05/18 10:42:17;;;;;;;1.50;1.40;;;;;;;16.50;64.06;100134.09;7644213;32;40583;-84
2023/05/18 10:46:34;;;;;;;2.00;1.58;;;;;;;16.23;64.25;100132.13;7656382;32;38695;-84
2023/05/18 10:50:53;;;;;;;5.90;1.42;;;;;;;16.36;64.75;100127.75;7658155;32;37112;-86
2023/05/18 10:55:10;;;;;;;2.17;1.23;;;;;;;16.51;64.32;100130.25;7655444;32;39925;-84
2023/05/18 10:59:26;;;;;;;4.53;2.53;;;;;;;16.64;64.30;100125.91;7676972;32;39911;-84
2023/05/18 11:03:43;;;;;;;3.72;1.67;;;;;;;16.38;66.38;100124.72;7644520;32;37985;-84
2023/05/18 11:08:04;;;;;;;4.70;2.03;;;;;;;16.52;65.51;100118.13;7663623;32;36783;-84
2023/05/18 11:12:21;;;;;;;2.87;1.73;;;;;;;16.65;64.91;100112.94;7668161;32;40157;-80
2023/05/18 11:16:40;;;;;;;7.22;2.30;;;;;;;16.79;64.23;100123.97;7660184;32;40712;-79
2023/05/18 11:20:57;;;;;;;1.75;1.27;;;;;;;16.99;65.20;100123.59;7654104;32;37862;-86
2023/05/18 11:25:35;;;;;;;4.30;1.15;;;;;;;16.95;64.83;100127.25;7668213;32;37586;-81
2023/05/18 11:29:51;;;;;;;4.20;1.20;;;;;;;16.86;65.30;100127.97;7671175;32;39936;-81
2023/05/18 11:34:43;;;;;;;1.20;1.10;;;;;;;16.97;65.22;100130.50;7666453;32;40000;-82
2023/05/18 11:39:05;;;;;;;15.20;8.47;;;;;;;16.80;64.33;100131.91;7649259;32;38835;-83
2023/05/18 11:43:23;;;;;;;369.48;85.60;;;;;;;16.98;64.02;100130.22;7649310;32;37051;-83
2023/05/18 11:47:39;;;;;;;53.13;15.38;;;;;;;16.78;65.11;100139.66;7663317;32;40079;-83
2023/05/18 11:52:04;;;;;;;21.42;5.28;;;;;;;17.19;63.07;100143.56;7666477;32;40153;-83
2023/05/18 11:56:23;;;;;;;6.45;2.78;;;;;;;17.07;64.34;100144.06;7672620;32;38812;-82
2023/05/18 12:00:39;;;;;;;4.65;1.50;;;;;;;17.01;65.31;100143.38;7672633;32;37431;-83
2023/05/18 12:04:58;;;;;;;2.05;1.20;;;;;;;16.99;64.97;100145.63;7651472;32;39144;-84
2023/05/18 12:09:15;;;;;;;1.00;1.00;;;;;;;16.89;64.32;100148.56;7647028;32;39958;-84
2023/05/18 12:13:32;;;;;;;2.25;1.12;;;;;;;16.99;63.65;100145.63;7645491;32;37822;-84
2023/05/18 12:17:50;;;;;;;2.55;1.58;;;;;;;16.77;64.45;100140.78;7667687;32;37120;-82
2023/05/18 12:22:07;;;;;;;7.68;2.70;;;;;;;16.78;65.06;100145.19;7668205;32;39406;-79
2023/05/18 12:26:24;;;;;;;7.47;2.58;;;;;;;16.91;65.11;100151.03;7646524;32;40538;-75
2023/05/18 12:30:42;;;;;;;1.35;1.20;;;;;;;17.07;64.62;100155.09;7659206;32;37981;-82
2023/05/18 12:34:59;;;;;;;1.48;1.15;;;;;;;17.12;64.52;100151.44;7648388;32;37909;-82
2023/05/18 12:39:15;;;;;;;2.10;1.42;;;;;;;17.17;63.98;100151.31;7645330;32;39223;-82
2023/05/18 12:43:36;;;;;;;0.90;0.90;;;;;;;17.08;63.46;100156.72;7672986;32;40772;-82
2023/05/18 12:47:56;;;;;;;1.83;1.20;;;;;;;17.15;64.31;100151.63;7671496;32;37990;-82
2023/05/18 12:52:14;;;;;;;3.15;1.23;;;;;;;17.07;65.64;100153.19;7683634;32;38000;-83
2023/05/18 12:56:50;;;;;;;1.02;0.93;;;;;;;17.24;64.99;100152.53;7685017;32;40101;-83
2023/05/18 13:01:08;;;;;;;1.55;1.25;;;;;;;17.07;64.68;100147.66;7659972;32;41779;-83
2023/05/18 13:05:25;;;;;;;3.20;1.33;;;;;;;17.34;63.84;100157.00;7645767;32;36842;-84
2023/05/18 13:09:45;;;;;;;3.05;1.12;;;;;;;17.35;63.59;100157.81;7664802;32;37964;-83
2023/05/18 13:14:03;;;;;;;2.92;1.40;;;;;;;17.49;63.58;100153.13;7685012;32;39087;-82
2023/05/18 13:18:20;;;;;;;2.20;1.30;;;;;;;17.45;63.55;100158.44;7660235;32;39457;-83
2023/05/18 13:22:36;;;;;;;1.50;1.40;;;;;;;17.41;61.90;100156.59;7658140;32;38848;-83
2023/05/18 13:26:52;;;;;;;1.77;1.40;;;;;;;17.31;62.56;100159.56;7658580;32;38191;-83
2023/05/18 13:31:09;;;;;;;3.90;1.30;;;;;;;17.53;62.86;100153.31;7684417;32;39390;-83
2023/05/18 13:35:27;;;;;;;3.10;1.40;;;;;;;17.54;62.60;100152.19;7683693;32;39748;-81
2023/05/18 13:39:44;;;;;;;2.92;1.35;;;;;;;17.71;62.11;100160.59;7672025;32;38060;-82
2023/05/18 13:44:01;;;;;;;2.12;0.90;;;;;;;17.68;61.80;100160.41;7679176;32;36988;-81
2023/05/18 13:48:17;;;;;;;3.35;1.17;;;;;;;17.73;61.20;100161.12;7657942;32;40173;-82
2023/05/18 13:52:34;;;;;;;5.03;1.30;;;;;;;17.83;60.97;100165.56;7657910;32;39916;-81
2023/05/18 13:56:51;;;;;;;2.75;1.27;;;;;;;17.98;61.23;100164.44;7657473;32;38029;-82
2023/05/18 14:01:08;;;;;;;2.05;1.37;;;;;;;17.83;61.74;100163.66;7643945;32;36969;-81
2023/05/18 14:05:28;;;;;;;2.95;1.73;;;;;;;17.62;61.06;100162.47;7655713;32;39409;-82
2023/05/18 14:09:44;;;;;;;3.33;1.30;;;;;;;17.96;60.62;100163.94;7657089;32;39653;-81
2023/05/18 14:14:01;;;;;;;1.98;1.08;;;;;;;17.98;60.11;100159.72;7657006;32;37887;-81
2023/05/18 14:18:17;;;;;;;3.55;1.35;;;;;;;17.81;60.68;100154.06;7657415;32;37833;-82
2023/05/18 14:22:33;;;;;;;1.70;1.17;;;;;;;18.07;59.76;100157.03;7643973;32;39208;-82
2023/05/18 14:26:52;;;;;;;2.87;1.33;;;;;;;17.98;60.02;100161.69;7657186;32;39697;-82
2023/05/18 14:31:08;;;;;;;1.10;1.00;;;;;;;17.96;60.74;100164.75;7656947;32;36955;-82
2023/05/18 14:35:24;;;;;;;3.75;1.37;;;;;;;17.76;61.57;100167.94;7656997;32;37128;-81
2023/05/18 14:39:41;;;;;;;5.93;1.23;;;;;;;17.61;60.62;100169.13;7656942;32;40165;-81
2023/05/18 14:43:57;;;;;;;3.45;1.10;;;;;;;17.55;60.98;100171.16;7656719;32;40160;-82
2023/05/18 14:48:13;;;;;;;1.60;1.10;;;;;;;17.43;60.20;100173.63;7658574;32;37705;-82
2023/05/18 14:52:30;;;;;;;1.00;1.00;;;;;;;17.24;61.20;100169.06;7660170;32;37430;-82
2023/05/18 14:56:46;;;;;;;2.37;1.00;;;;;;;17.30;61.62;100169.78;7660143;32;39466;-82
2023/05/18 15:01:02;;;;;;;6.35;1.73;;;;;;;17.26;61.93;100182.53;7659996;32;40041;-82
2023/05/18 15:05:19;;;;;;;3.87;1.02;;;;;;;17.23;62.25;100177.62;7659939;32;37920;-81
2023/05/18 15:09:35;;;;;;;3.37;0.90;;;;;;;17.25;61.11;100181.72;7659991;32;37966;-82
2023/05/18 15:13:52;;;;;;;4.97;1.67;;;;;;;17.08;62.57;100179.56;7659950;32;39845;-82
2023/05/18 15:18:08;;;;;;;1.45;1.20;;;;;;;16.98;62.85;100174.28;7659750;32;40836;-82
2023/05/18 15:22:24;;;;;;;3.28;1.20;;;;;;;16.95;62.30;100176.81;7659639;32;37922;-81
2023/05/18 15:26:41;;;;;;;2.37;1.05;;;;;;;16.86;63.06;100188.53;7659839;32;37072;-81
2023/05/18 15:30:57;;;;;;;2.40;0.98;;;;;;;16.76;64.60;100180.44;7659526;32;40046;-82
2023/05/18 15:35:16;;;;;;;1.25;1.08;;;;;;;16.78;63.70;100178.22;7659652;32;39679;-82
2023/05/18 15:39:35;;;;;;;1.87;1.00;;;;;;;16.77;64.18;100175.75;7659573;32;38124;-82
2023/05/18 15:43:51;;;;;;;3.87;1.33;;;;;;;16.75;65.01;100173.31;7659537;32;37646;-82
2023/05/18 15:48:08;;;;;;;1.02;1.00;;;;;;;16.85;64.30;100183.31;7659518;32;40056;-82
2023/05/18 15:52:24;;;;;;;2.75;1.20;;;;;;;17.03;63.89;100168.66;7659371;32;40062;-81
2023/05/18 15:56:40;;;;;;;0.88;0.88;;;;;;;16.97;64.22;100174.56;7659301;32;38711;-81
2023/05/18 16:00:57;;;;;;;2.25;1.20;;;;;;;16.88;65.01;100171.72;7656223;32;37091;-83
2023/05/18 16:05:13;;;;;;;2.25;1.60;;;;;;;16.81;64.29;100182.28;7659187;32;40125;-81
2023/05/18 16:09:29;;;;;;;1.40;1.30;;;;;;;16.81;64.61;100191.34;7655654;32;40817;-83
2023/05/18 16:13:48;;;;;;;1.58;1.27;;;;;;;16.82;64.66;100184.75;7684928;32;37651;-84
2023/05/18 16:18:05;;;;;;;3.92;1.52;;;;;;;16.99;63.97;100175.91;7685011;32;37230;-83
2023/05/18 16:22:21;;;;;;;5.32;2.30;;;;;;;16.76;65.25;100185.94;7666458;32;40249;-81
2023/05/18 16:26:38;;;;;;;1.58;1.37;;;;;;;16.73;65.47;100192.06;7665607;32;40597;-83
2023/05/18 16:30:55;;;;;;;3.70;1.37;;;;;;;16.74;65.45;100188.19;7671978;32;38789;-83
2023/05/18 16:35:11;;;;;;;2.35;1.20;;;;;;;16.87;64.12;100192.94;7685211;32;37148;-83
2023/05/18 16:39:28;;;;;;;6.22;2.00;;;;;;;16.65;65.50;100192.75;7684558;32;39450;-83
2023/05/18 16:43:45;;;;;;;5.32;2.30;;;;;;;16.80;64.49;100186.97;7684926;32;39936;-82
2023/05/18 16:48:02;;;;;;;2.78;1.60;;;;;;;16.70;65.06;100184.41;7684730;32;37849;-83
2023/05/18 16:52:20;;;;;;;5.57;2.33;;;;;;;16.77;65.01;100195.84;7684299;32;37067;-83
2023/05/18 16:56:37;;;;;;;3.33;2.10;;;;;;;16.62;64.77;100191.41;7671218;32;40157;-83
2023/05/18 17:00:54;;;;;;;2.60;1.12;;;;;;;16.53;65.44;100194.06;7657746;32;39728;-83
2023/05/18 17:05:10;;;;;;;1.05;1.05;;;;;;;16.59;64.77;100196.72;7658421;32;38020;-84
2023/05/18 17:09:27;;;;;;;3.97;1.33;;;;;;;16.64;64.51;100199.38;7657360;32;37748;-82
2023/05/18 17:13:43;;;;;;;1.37;1.25;;;;;;;16.76;64.04;100194.19;7657544;32;40226;-83
2023/05/18 17:18:00;;;;;;;2.15;1.33;;;;;;;16.77;64.19;100203.28;7644555;32;39894;-83
2023/05/18 17:22:17;;;;;;;1.50;1.30;;;;;;;16.65;64.84;100203.78;7657255;32;37938;-83
2023/05/18 17:26:33;;;;;;;2.75;1.50;;;;;;;16.52;65.38;100197.94;7658286;32;37882;-82
2023/05/18 17:30:50;;;;;;;2.25;1.40;;;;;;;16.48;65.43;100207.91;7657056;32;39115;-82
2023/05/18 17:35:08;;;;;;;1.20;1.10;;;;;;;16.28;65.76;100217.31;7662266;32;40255;-82
2023/05/18 17:39:28;;;;;;;2.92;1.20;;;;;;;16.44;64.88;100209.63;7683879;32;37970;-83
2023/05/18 17:43:45;;;;;;;1.30;1.20;;;;;;;16.40;65.28;100221.53;7662393;32;37979;-83
2023/05/18 17:48:01;;;;;;;2.45;1.30;;;;;;;16.22;65.37;100214.94;7657650;32;39453;-83
2023/05/18 17:52:18;;;;;;;1.83;1.40;;;;;;;16.37;65.07;100217.47;7656978;32;39950;-83
2023/05/18 17:56:34;;;;;;;2.28;1.40;;;;;;;16.36;64.84;100223.25;7679487;32;37996;-82
2023/05/18 18:00:51;;;;;;;5.97;1.45;;;;;;;16.24;65.18;100223.72;7677359;32;37890;-83
2023/05/18 18:05:08;;;;;;;1.75;1.30;;;;;;;16.27;65.41;100228.62;7661560;32;39328;-84
2023/05/18 18:09:24;;;;;;;2.22;1.50;;;;;;;16.14;65.25;100230.19;7682065;32;40744;-82
2023/05/18 18:13:41;;;;;;;1.70;1.50;;;;;;;16.30;64.24;100230.78;7657162;32;37922;-84
2023/05/18 18:17:57;;;;;;;1.60;1.50;;;;;;;16.11;64.80;100231.59;7655672;32;37837;-84
2023/05/18 18:22:13;;;;;;;1.73;1.60;;;;;;;15.93;65.43;100229.66;7669442;32;37696;-86
2023/05/18 18:26:31;;;;;;;1.70;1.50;;;;;;;15.85;65.85;100227.56;7671355;32;40569;-86
2023/05/18 18:30:47;;;;;;;2.08;1.62;;;;;;;15.79;66.18;100245.28;7666390;32;37939;-86
2023/05/18 18:35:04;;;;;;;2.35;1.90;;;;;;;15.68;66.29;100250.87;7684603;32;37513;-86
2023/05/18 18:39:21;;;;;;;2.53;1.87;;;;;;;15.74;66.22;100244.19;7678601;32;39467;-82
2023/05/18 18:43:38;;;;;;;2.00;1.77;;;;;;;15.82;66.10;100241.94;7685094;32;40601;-82
2023/05/18 18:47:55;;;;;;;2.50;1.65;;;;;;;15.63;66.54;100220.72;7691876;32;38727;-81
2023/05/18 18:52:11;;;;;;;1.90;1.70;;;;;;;15.64;66.40;100238.81;7678226;32;38231;-83
2023/05/18 18:56:29;;;;;;;5.97;1.90;;;;;;;15.75;65.77;100245.06;7673583;32;37464;-82
2023/05/18 19:00:45;;;;;;;3.15;1.95;;;;;;;15.80;65.54;100258.72;7672571;32;39835;-84
2023/05/18 19:05:04;;;;;;;2.58;2.00;;;;;;;15.52;66.61;100257.66;7671926;32;37927;-82
2023/05/18 19:09:22;;;;;;;3.30;1.58;;;;;;;15.48;66.96;100251.13;7670921;32;36333;-82
2023/05/18 19:13:39;;;;;;;5.93;2.03;;;;;;;15.50;66.88;100252.44;7670660;32;40067;-82
2023/05/18 19:17:55;;;;;;;6.12;1.90;;;;;;;15.43;66.98;100270.41;7670495;32;39988;-82
2023/05/18 19:22:13;;;;;;;4.80;1.90;;;;;;;15.48;66.91;100264.88;7669200;32;37692;-81
2023/05/18 19:26:30;;;;;;;3.85;2.03;;;;;;;15.59;66.38;100263.59;7657578;32;35413;-81
2023/05/18 19:30:48;;;;;;;5.70;1.87;;;;;;;15.59;66.44;100271.84;7669302;32;39492;-82
2023/05/18 19:35:04;;;;;;;3.42;1.70;;;;;;;15.63;66.65;100275.66;7651956;32;40148;-82
2023/05/18 19:39:21;;;;;;;2.67;1.90;;;;;;;15.54;66.88;100272.75;7673186;32;38652;-86
2023/05/18 19:43:37;;;;;;;2.95;1.98;;;;;;;15.68;66.32;100272.84;7670631;32;37250;-85
2023/05/18 19:47:54;;;;;;;2.70;1.70;;;;;;;15.56;66.57;100277.97;7659387;32;39054;-86
2023/05/18 19:52:10;;;;;;;6.57;1.85;;;;;;;15.50;66.85;100290.91;7659824;32;41028;-84
2023/05/18 19:56:26;;;;;;;2.97;1.87;;;;;;;15.44;67.26;100300.34;7685712;32;38780;-85
2023/05/18 20:00:43;;;;;;;4.07;1.90;;;;;;;15.73;66.42;100297.53;7657534;32;37132;-89